sensor_id;sensor_type;location;lat;lon;timestamp;temperature;humidity
4643;DHT22;2334;48.710;9.622;2024-03-25T00:00:09;5.10;99.90
4643;DHT22;2334;48.710;9.622;2024-03-25T00:02:37;5.10;99.90
4643;DHT22;2334;48.710;9.622;2024-03-25T00:05:05;5.10;99.90
4643;DHT22;2334;48.710;9.622;2024-03-25T00:07:34;5.10;99.90
4643;DHT22;2334;48.710;9.622;2024-03-25T00:10:00;5.10;99.90
4643;DHT22;2334;48.710;9.622;2024-03-25T00:12:28;5.10;99.90
4643;DHT22;2334;48.710;9.622;2024-03-25T00:14:54;5.10;99.90
4643;DHT22;2334;48.710;9.622;2024-03-25T00:17:21;5.10;99.90
4643;DHT22;2334;48.710;9.622;2024-03-25T00:19:46;5.10;99.90
4643;DHT22;2334;48.710;9.622;2024-03-25T00:22:17;5.10;99.90
4643;DHT22;2334;48.710;9.622;2024-03-25T00:24:45;5.10;99.90
4643;DHT22;2334;48.710;9.622;2024-03-25T00:27:12;5.10;99.90
4643;DHT22;2334;48.710;9.622;2024-03-25T00:29:38;5.10;99.90
4643;DHT22;2334;48.710;9.622;2024-03-25T00:32:05;5.10;99.90
4643;DHT22;2334;48.710;9.622;2024-03-25T00:34:31;5.10;99.90
4643;DHT22;2334;48.710;9.622;2024-03-25T00:36:58;5.10;99.90
4643;DHT22;2334;48.710;9.622;2024-03-25T00:39:26;5.10;99.90
4643;DHT22;2334;48.710;9.622;2024-03-25T00:41:53;5.10;99.90
4643;DHT22;2334;48.710;9.622;2024-03-25T00:44:19;5.00;99.90
4643;DHT22;2334;48.710;9.622;2024-03-25T00:46:46;5.10;99.90
4643;DHT22;2334;48.710;9.622;2024-03-25T00:49:12;5.10;99.90
4643;DHT22;2334;48.710;9.622;2024-03-25T00:51:39;5.10;99.90
4643;DHT22;2334;48.710;9.622;2024-03-25T00:54:05;5.10;99.90
4643;DHT22;2334;48.710;9.622;2024-03-25T00:56:34;5.10;99.90
4643;DHT22;2334;48.710;9.622;2024-03-25T00:59:00;5.10;99.90
4643;DHT22;2334;48.710;9.622;2024-03-25T01:01:29;5.10;99.90
4643;DHT22;2334;48.710;9.622;2024-03-25T01:03:55;5.00;99.90
4643;DHT22;2334;48.710;9.622;2024-03-25T01:06:21;5.00;99.90
4643;DHT22;2334;48.710;9.622;2024-03-25T01:08:48;5.00;99.90
4643;DHT22;2334;48.710;9.622;2024-03-25T01:11:15;5.00;99.90
4643;DHT22;2334;48.710;9.622;2024-03-25T01:13:42;5.00;99.90
4643;DHT22;2334;48.710;9.622;2024-03-25T01:16:09;5.00;99.90
4643;DHT22;2334;48.710;9.622;2024-03-25T01:18:35;4.90;99.90
4643;DHT22;2334;48.710;9.622;2024-03-25T01:21:03;4.90;99.90
4643;DHT22;2334;48.710;9.622;2024-03-25T01:23:30;5.00;99.90
4643;DHT22;2334;48.710;9.622;2024-03-25T01:25:57;5.00;99.90
4643;DHT22;2334;48.710;9.622;2024-03-25T01:28:23;5.00;99.90
4643;DHT22;2334;48.710;9.622;2024-03-25T01:30:51;4.90;99.90
4643;DHT22;2334;48.710;9.622;2024-03-25T01:33:17;4.90;99.90
4643;DHT22;2334;48.710;9.622;2024-03-25T01:35:44;4.90;99.90
4643;DHT22;2334;48.710;9.622;2024-03-25T01:38:10;4.80;99.90
4643;DHT22;2334;48.710;9.622;2024-03-25T01:40:37;4.80;99.90
4643;DHT22;2334;48.710;9.622;2024-03-25T01:43:03;4.80;99.90
4643;DHT22;2334;48.710;9.622;2024-03-25T01:45:32;4.80;99.90
4643;DHT22;2334;48.710;9.622;2024-03-25T01:48:03;4.70;99.90
4643;DHT22;2334;48.710;9.622;2024-03-25T01:50:34;4.70;99.90
4643;DHT22;2334;48.710;9.622;2024-03-25T01:53:01;4.70;99.90
4643;DHT22;2334;48.710;9.622;2024-03-25T01:55:30;4.60;99.90
4643;DHT22;2334;48.710;9.622;2024-03-25T01:57:58;4.60;99.90
4643;DHT22;2334;48.710;9.622;2024-03-25T02:00:25;4.60;99.90
4643;DHT22;2334;48.710;9.622;2024-03-25T02:02:52;4.60;99.90
4643;DHT22;2334;48.710;9.622;2024-03-25T02:05:21;4.50;99.90
4643;DHT22;2334;48.710;9.622;2024-03-25T02:07:48;4.50;99.90
4643;DHT22;2334;48.710;9.622;2024-03-25T02:10:15;4.50;99.90
4643;DHT22;2334;48.710;9.622;2024-03-25T02:12:43;4.40;99.90
4643;DHT22;2334;48.710;9.622;2024-03-25T02:15:09;4.40;99.90
4643;DHT22;2334;48.710;9.622;2024-03-25T02:17:37;4.40;99.90
4643;DHT22;2334;48.710;9.622;2024-03-25T02:20:04;4.40;99.90
4643;DHT22;2334;48.710;9.622;2024-03-25T02:22:35;4.40;99.90
4643;DHT22;2334;48.710;9.622;2024-03-25T02:25:03;4.30;99.90
4643;DHT22;2334;48.710;9.622;2024-03-25T02:27:33;4.30;99.90
4643;DHT22;2334;48.710;9.622;2024-03-25T02:30:02;4.40;99.90
4643;DHT22;2334;48.710;9.622;2024-03-25T02:32:31;4.30;99.90
4643;DHT22;2334;48.710;9.622;2024-03-25T02:34:57;4.30;99.90
4643;DHT22;2334;48.710;9.622;2024-03-25T02:37:25;4.40;99.90
4643;DHT22;2334;48.710;9.622;2024-03-25T02:39:51;4.30;99.90
4643;DHT22;2334;48.710;9.622;2024-03-25T02:42:19;4.30;99.90
4643;DHT22;2334;48.710;9.622;2024-03-25T02:44:46;4.30;99.90
4643;DHT22;2334;48.710;9.622;2024-03-25T02:47:14;4.40;99.90
4643;DHT22;2334;48.710;9.622;2024-03-25T02:49:40;4.30;99.90
4643;DHT22;2334;48.710;9.622;2024-03-25T02:52:08;4.30;99.90
4643;DHT22;2334;48.710;9.622;2024-03-25T02:54:35;4.40;99.90
4643;DHT22;2334;48.710;9.622;2024-03-25T02:57:01;4.40;99.90
4643;DHT22;2334;48.710;9.622;2024-03-25T02:59:28;4.40;99.90
4643;DHT22;2334;48.710;9.622;2024-03-25T03:01:55;4.40;99.90
4643;DHT22;2334;48.710;9.622;2024-03-25T03:04:22;4.40;99.90
4643;DHT22;2334;48.710;9.622;2024-03-25T03:06:48;4.40;99.90
4643;DHT22;2334;48.710;9.622;2024-03-25T03:09:15;4.40;99.90
4643;DHT22;2334;48.710;9.622;2024-03-25T03:11:41;4.40;99.90
4643;DHT22;2334;48.710;9.622;2024-03-25T03:14:08;4.40;99.90
4643;DHT22;2334;48.710;9.622;2024-03-25T03:16:34;4.30;99.90
4643;DHT22;2334;48.710;9.622;2024-03-25T03:19:02;4.40;99.90
4643;DHT22;2334;48.710;9.622;2024-03-25T03:21:28;4.40;99.90
4643;DHT22;2334;48.710;9.622;2024-03-25T03:23:55;4.40;99.90
4643;DHT22;2334;48.710;9.622;2024-03-25T03:26:21;4.40;99.90
4643;DHT22;2334;48.710;9.622;2024-03-25T03:28:52;4.40;99.90
4643;DHT22;2334;48.710;9.622;2024-03-25T03:31:18;4.40;99.90
4643;DHT22;2334;48.710;9.622;2024-03-25T03:33:47;4.30;99.90
4643;DHT22;2334;48.710;9.622;2024-03-25T03:36:15;4.40;99.90
4643;DHT22;2334;48.710;9.622;2024-03-25T03:38:42;4.40;99.90
4643;DHT22;2334;48.710;9.622;2024-03-25T03:41:07;4.40;99.90
4643;DHT22;2334;48.710;9.622;2024-03-25T03:43:34;4.40;99.90
4643;DHT22;2334;48.710;9.622;2024-03-25T03:46:00;4.40;99.90
4643;DHT22;2334;48.710;9.622;2024-03-25T03:48:28;4.40;99.90
4643;DHT22;2334;48.710;9.622;2024-03-25T03:50:54;4.40;99.90
4643;DHT22;2334;48.710;9.622;2024-03-25T03:53:22;4.40;99.90
4643;DHT22;2334;48.710;9.622;2024-03-25T03:55:53;4.40;99.90
4643;DHT22;2334;48.710;9.622;2024-03-25T03:58:20;4.30;99.90
4643;DHT22;2334;48.710;9.622;2024-03-25T04:00:46;4.30;99.90
4643;DHT22;2334;48.710;9.622;2024-03-25T04:03:13;4.30;99.90
4643;DHT22;2334;48.710;9.622;2024-03-25T04:05:39;4.30;99.90
4643;DHT22;2334;48.710;9.622;2024-03-25T04:08:06;4.30;99.90
4643;DHT22;2334;48.710;9.622;2024-03-25T04:10:35;4.30;99.90
4643;DHT22;2334;48.710;9.622;2024-03-25T04:13:03;4.30;99.90
4643;DHT22;2334;48.710;9.622;2024-03-25T04:15:29;4.40;99.90
4643;DHT22;2334;48.710;9.622;2024-03-25T04:17:57;4.40;99.90
4643;DHT22;2334;48.710;9.622;2024-03-25T04:20:24;4.30;99.90
4643;DHT22;2334;48.710;9.622;2024-03-25T04:22:50;4.30;99.90
4643;DHT22;2334;48.710;9.622;2024-03-25T04:25:17;4.30;99.90
4643;DHT22;2334;48.710;9.622;2024-03-25T04:27:44;4.30;99.90
4643;DHT22;2334;48.710;9.622;2024-03-25T04:30:12;4.30;99.90
4643;DHT22;2334;48.710;9.622;2024-03-25T04:32:38;4.40;99.90
4643;DHT22;2334;48.710;9.622;2024-03-25T04:35:06;4.40;99.90
4643;DHT22;2334;48.710;9.622;2024-03-25T04:37:33;4.40;99.90
4643;DHT22;2334;48.710;9.622;2024-03-25T04:40:00;4.40;99.90
4643;DHT22;2334;48.710;9.622;2024-03-25T04:42:26;4.30;99.90
4643;DHT22;2334;48.710;9.622;2024-03-25T04:44:53;4.30;99.90
4643;DHT22;2334;48.710;9.622;2024-03-25T04:47:19;4.40;99.90
4643;DHT22;2334;48.710;9.622;2024-03-25T04:49:46;4.40;99.90
4643;DHT22;2334;48.710;9.622;2024-03-25T04:52:12;4.40;99.90
4643;DHT22;2334;48.710;9.622;2024-03-25T04:54:38;4.40;99.90
4643;DHT22;2334;48.710;9.622;2024-03-25T04:57:05;4.40;99.90
4643;DHT22;2334;48.710;9.622;2024-03-25T04:59:31;4.40;99.90
4643;DHT22;2334;48.710;9.622;2024-03-25T05:01:59;4.40;99.90
4643;DHT22;2334;48.710;9.622;2024-03-25T05:04:25;4.40;99.90
4643;DHT22;2334;48.710;9.622;2024-03-25T05:06:51;4.40;99.90
4643;DHT22;2334;48.710;9.622;2024-03-25T05:09:17;4.40;99.90
4643;DHT22;2334;48.710;9.622;2024-03-25T05:11:43;4.40;99.90
4643;DHT22;2334;48.710;9.622;2024-03-25T05:14:09;4.50;99.90
4643;DHT22;2334;48.710;9.622;2024-03-25T05:16:35;4.40;99.90
4643;DHT22;2334;48.710;9.622;2024-03-25T05:19:02;4.40;99.90
4643;DHT22;2334;48.710;9.622;2024-03-25T05:21:28;4.30;99.90
4643;DHT22;2334;48.710;9.622;2024-03-25T05:23:54;4.40;99.90
4643;DHT22;2334;48.710;9.622;2024-03-25T05:26:20;4.40;99.90
4643;DHT22;2334;48.710;9.622;2024-03-25T05:28:46;4.40;99.90
4643;DHT22;2334;48.710;9.622;2024-03-25T05:31:12;4.40;99.90
4643;DHT22;2334;48.710;9.622;2024-03-25T05:33:38;4.40;99.90
4643;DHT22;2334;48.710;9.622;2024-03-25T05:36:06;4.50;99.90
4643;DHT22;2334;48.710;9.622;2024-03-25T05:38:32;4.50;99.90
4643;DHT22;2334;48.710;9.622;2024-03-25T05:40:58;4.50;99.90
4643;DHT22;2334;48.710;9.622;2024-03-25T05:43:24;4.60;99.90
4643;DHT22;2334;48.710;9.622;2024-03-25T05:45:50;4.60;99.90
4643;DHT22;2334;48.710;9.622;2024-03-25T05:48:16;4.60;99.90
4643;DHT22;2334;48.710;9.622;2024-03-25T05:50:42;4.70;99.90
4643;DHT22;2334;48.710;9.622;2024-03-25T05:53:09;4.70;99.90
4643;DHT22;2334;48.710;9.622;2024-03-25T05:55:35;4.80;99.90
4643;DHT22;2334;48.710;9.622;2024-03-25T05:58:01;4.80;99.90
4643;DHT22;2334;48.710;9.622;2024-03-25T06:00:28;4.80;99.90
4643;DHT22;2334;48.710;9.622;2024-03-25T06:02:54;4.90;99.90
4643;DHT22;2334;48.710;9.622;2024-03-25T06:05:20;4.90;99.90
4643;DHT22;2334;48.710;9.622;2024-03-25T06:07:46;5.00;99.90
4643;DHT22;2334;48.710;9.622;2024-03-25T06:10:13;5.00;99.90
4643;DHT22;2334;48.710;9.622;2024-03-25T06:12:39;5.00;99.90
4643;DHT22;2334;48.710;9.622;2024-03-25T06:15:06;5.00;99.90
4643;DHT22;2334;48.710;9.622;2024-03-25T06:17:33;5.10;99.90
4643;DHT22;2334;48.710;9.622;2024-03-25T06:19:58;5.10;99.90
4643;DHT22;2334;48.710;9.622;2024-03-25T06:22:24;5.10;99.90
4643;DHT22;2334;48.710;9.622;2024-03-25T06:24:50;5.10;99.90
4643;DHT22;2334;48.710;9.622;2024-03-25T06:27:18;5.10;99.90
4643;DHT22;2334;48.710;9.622;2024-03-25T06:29:43;5.10;99.90
4643;DHT22;2334;48.710;9.622;2024-03-25T06:32:09;5.10;99.90
4643;DHT22;2334;48.710;9.622;2024-03-25T06:34:54;5.10;99.90
4643;DHT22;2334;48.710;9.622;2024-03-25T06:37:20;5.10;99.90
4643;DHT22;2334;48.710;9.622;2024-03-25T06:39:45;5.10;99.90
4643;DHT22;2334;48.710;9.622;2024-03-25T06:42:11;5.10;99.90
4643;DHT22;2334;48.710;9.622;2024-03-25T06:44:39;5.20;99.90
4643;DHT22;2334;48.710;9.622;2024-03-25T06:47:05;5.30;99.90
4643;DHT22;2334;48.710;9.622;2024-03-25T06:49:31;5.40;99.90
4643;DHT22;2334;48.710;9.622;2024-03-25T06:51:56;5.30;99.90
4643;DHT22;2334;48.710;9.622;2024-03-25T06:54:22;5.30;99.90
4643;DHT22;2334;48.710;9.622;2024-03-25T06:56:48;5.30;99.90
4643;DHT22;2334;48.710;9.622;2024-03-25T06:59:14;5.40;99.90
4643;DHT22;2334;48.710;9.622;2024-03-25T07:01:42;5.40;99.90
4643;DHT22;2334;48.710;9.622;2024-03-25T07:04:08;5.40;99.90
4643;DHT22;2334;48.710;9.622;2024-03-25T07:06:33;5.40;99.90
4643;DHT22;2334;48.710;9.622;2024-03-25T07:08:59;5.50;99.90
4643;DHT22;2334;48.710;9.622;2024-03-25T07:11:25;5.60;99.90
4643;DHT22;2334;48.710;9.622;2024-03-25T07:13:51;5.60;99.90
4643;DHT22;2334;48.710;9.622;2024-03-25T07:16:17;5.80;99.90
4643;DHT22;2334;48.710;9.622;2024-03-25T07:18:44;5.90;99.90
4643;DHT22;2334;48.710;9.622;2024-03-25T07:21:10;6.00;99.90
4643;DHT22;2334;48.710;9.622;2024-03-25T07:23:36;6.20;99.90
4643;DHT22;2334;48.710;9.622;2024-03-25T07:26:02;6.30;99.90
4643;DHT22;2334;48.710;9.622;2024-03-25T07:28:28;6.30;99.90
4643;DHT22;2334;48.710;9.622;2024-03-25T07:30:54;6.60;99.90
4643;DHT22;2334;48.710;9.622;2024-03-25T07:33:20;6.60;99.90
4643;DHT22;2334;48.710;9.622;2024-03-25T07:35:47;6.50;99.90
4643;DHT22;2334;48.710;9.622;2024-03-25T07:38:13;6.50;99.90
4643;DHT22;2334;48.710;9.622;2024-03-25T07:40:39;6.50;99.90
4643;DHT22;2334;48.710;9.622;2024-03-25T07:43:05;6.60;99.90
4643;DHT22;2334;48.710;9.622;2024-03-25T07:45:31;6.50;99.90
4643;DHT22;2334;48.710;9.622;2024-03-25T07:47:57;6.30;99.90
4643;DHT22;2334;48.710;9.622;2024-03-25T07:50:23;6.40;99.90
4643;DHT22;2334;48.710;9.622;2024-03-25T07:52:50;6.40;99.90
4643;DHT22;2334;48.710;9.622;2024-03-25T07:55:16;6.40;99.90
4643;DHT22;2334;48.710;9.622;2024-03-25T07:57:42;6.40;99.90
4643;DHT22;2334;48.710;9.622;2024-03-25T08:00:08;6.50;99.90
4643;DHT22;2334;48.710;9.622;2024-03-25T08:02:34;6.40;99.90
4643;DHT22;2334;48.710;9.622;2024-03-25T08:05:00;6.40;99.90
4643;DHT22;2334;48.710;9.622;2024-03-25T08:07:26;6.40;99.90
4643;DHT22;2334;48.710;9.622;2024-03-25T08:09:54;6.30;99.90
4643;DHT22;2334;48.710;9.622;2024-03-25T08:12:20;6.40;99.90
4643;DHT22;2334;48.710;9.622;2024-03-25T08:14:46;6.50;99.90
4643;DHT22;2334;48.710;9.622;2024-03-25T08:17:11;6.80;99.90
4643;DHT22;2334;48.710;9.622;2024-03-25T08:19:37;7.20;99.90
4643;DHT22;2334;48.710;9.622;2024-03-25T08:22:04;7.10;99.90
4643;DHT22;2334;48.710;9.622;2024-03-25T08:24:29;7.30;99.90
4643;DHT22;2334;48.710;9.622;2024-03-25T08:26:57;7.20;99.90
4643;DHT22;2334;48.710;9.622;2024-03-25T08:29:23;7.30;99.90
4643;DHT22;2334;48.710;9.622;2024-03-25T08:31:49;7.40;99.90
4643;DHT22;2334;48.710;9.622;2024-03-25T08:34:15;7.70;99.90
4643;DHT22;2334;48.710;9.622;2024-03-25T08:36:41;7.80;99.90
4643;DHT22;2334;48.710;9.622;2024-03-25T08:39:06;7.80;99.90
4643;DHT22;2334;48.710;9.622;2024-03-25T08:41:32;7.90;99.90
4643;DHT22;2334;48.710;9.622;2024-03-25T08:44:00;8.20;99.90
4643;DHT22;2334;48.710;9.622;2024-03-25T08:46:25;8.50;99.90
4643;DHT22;2334;48.710;9.622;2024-03-25T08:48:51;8.70;99.90
4643;DHT22;2334;48.710;9.622;2024-03-25T08:51:17;8.50;99.90
4643;DHT22;2334;48.710;9.622;2024-03-25T08:53:43;8.70;99.90
4643;DHT22;2334;48.710;9.622;2024-03-25T08:56:09;8.70;99.90
4643;DHT22;2334;48.710;9.622;2024-03-25T08:58:35;9.10;99.90
4643;DHT22;2334;48.710;9.622;2024-03-25T09:01:03;8.70;99.90
4643;DHT22;2334;48.710;9.622;2024-03-25T09:03:28;8.90;99.90
4643;DHT22;2334;48.710;9.622;2024-03-25T09:05:55;9.40;99.90
4643;DHT22;2334;48.710;9.622;2024-03-25T09:08:21;9.70;99.90
4643;DHT22;2334;48.710;9.622;2024-03-25T09:10:46;9.60;99.90
4643;DHT22;2334;48.710;9.622;2024-03-25T09:13:31;9.40;99.90
4643;DHT22;2334;48.710;9.622;2024-03-25T09:15:57;9.50;99.90
4643;DHT22;2334;48.710;9.622;2024-03-25T09:18:24;9.70;99.90
4643;DHT22;2334;48.710;9.622;2024-03-25T09:20:50;9.40;99.90
4643;DHT22;2334;48.710;9.622;2024-03-25T09:23:16;9.60;99.90
4643;DHT22;2334;48.710;9.622;2024-03-25T09:25:51;9.80;99.90
4643;DHT22;2334;48.710;9.622;2024-03-25T09:28:17;10.00;99.90
4643;DHT22;2334;48.710;9.622;2024-03-25T09:30:43;9.60;99.90
4643;DHT22;2334;48.710;9.622;2024-03-25T09:33:09;9.40;99.90
4643;DHT22;2334;48.710;9.622;2024-03-25T09:35:36;9.50;99.90
4643;DHT22;2334;48.710;9.622;2024-03-25T09:38:03;9.40;99.90
4643;DHT22;2334;48.710;9.622;2024-03-25T09:40:29;9.40;99.90
4643;DHT22;2334;48.710;9.622;2024-03-25T09:42:56;9.60;99.90
4643;DHT22;2334;48.710;9.622;2024-03-25T09:45:24;9.70;99.90
4643;DHT22;2334;48.710;9.622;2024-03-25T09:47:51;9.50;99.90
4643;DHT22;2334;48.710;9.622;2024-03-25T09:50:17;9.80;99.90
4643;DHT22;2334;48.710;9.622;2024-03-25T09:52:45;9.70;99.90
4643;DHT22;2334;48.710;9.622;2024-03-25T09:55:11;9.60;99.90
4643;DHT22;2334;48.710;9.622;2024-03-25T09:57:37;9.70;99.90
4643;DHT22;2334;48.710;9.622;2024-03-25T10:00:05;10.10;99.90
4643;DHT22;2334;48.710;9.622;2024-03-25T10:02:32;10.70;99.90
4643;DHT22;2334;48.710;9.622;2024-03-25T10:04:59;10.60;99.90
4643;DHT22;2334;48.710;9.622;2024-03-25T10:07:25;10.10;99.90
4643;DHT22;2334;48.710;9.622;2024-03-25T10:09:53;10.60;99.90
4643;DHT22;2334;48.710;9.622;2024-03-25T10:12:19;10.30;99.90
4643;DHT22;2334;48.710;9.622;2024-03-25T10:14:45;10.50;99.90
4643;DHT22;2334;48.710;9.622;2024-03-25T10:17:11;10.70;99.90
4643;DHT22;2334;48.710;9.622;2024-03-25T10:19:37;11.40;99.90
4643;DHT22;2334;48.710;9.622;2024-03-25T10:22:04;11.90;99.90
4643;DHT22;2334;48.710;9.622;2024-03-25T10:24:38;12.30;99.90
4643;DHT22;2334;48.710;9.622;2024-03-25T10:27:09;12.00;99.90
4643;DHT22;2334;48.710;9.622;2024-03-25T10:29:35;12.30;99.90
4643;DHT22;2334;48.710;9.622;2024-03-25T10:32:01;12.20;99.90
4643;DHT22;2334;48.710;9.622;2024-03-25T10:34:27;11.90;99.90
4643;DHT22;2334;48.710;9.622;2024-03-25T10:36:56;11.30;99.90
4643;DHT22;2334;48.710;9.622;2024-03-25T10:39:26;11.50;99.90
4643;DHT22;2334;48.710;9.622;2024-03-25T10:41:56;11.30;99.90
4643;DHT22;2334;48.710;9.622;2024-03-25T10:44:23;11.10;99.90
4643;DHT22;2334;48.710;9.622;2024-03-25T10:46:55;11.30;99.90
4643;DHT22;2334;48.710;9.622;2024-03-25T10:49:33;11.70;99.90
4643;DHT22;2334;48.710;9.622;2024-03-25T10:52:02;12.70;99.90
4643;DHT22;2334;48.710;9.622;2024-03-25T10:54:30;12.60;99.90
4643;DHT22;2334;48.710;9.622;2024-03-25T10:56:58;12.60;99.90
4643;DHT22;2334;48.710;9.622;2024-03-25T10:59:26;12.30;99.90
4643;DHT22;2334;48.710;9.622;2024-03-25T11:01:52;12.40;99.90
4643;DHT22;2334;48.710;9.622;2024-03-25T11:04:19;12.60;99.90
4643;DHT22;2334;48.710;9.622;2024-03-25T11:06:45;12.30;99.90
4643;DHT22;2334;48.710;9.622;2024-03-25T11:09:22;12.50;99.90
4643;DHT22;2334;48.710;9.622;2024-03-25T11:11:49;12.60;99.90
4643;DHT22;2334;48.710;9.622;2024-03-25T11:14:16;12.70;99.90
4643;DHT22;2334;48.710;9.622;2024-03-25T11:16:43;12.40;99.90
4643;DHT22;2334;48.710;9.622;2024-03-25T11:19:11;12.30;99.90
4643;DHT22;2334;48.710;9.622;2024-03-25T11:21:37;12.70;99.90
4643;DHT22;2334;48.710;9.622;2024-03-25T11:24:06;13.10;99.90
4643;DHT22;2334;48.710;9.622;2024-03-25T11:26:34;12.60;99.90
4643;DHT22;2334;48.710;9.622;2024-03-25T11:29:00;12.90;99.90
4643;DHT22;2334;48.710;9.622;2024-03-25T11:31:26;13.00;99.90
4643;DHT22;2334;48.710;9.622;2024-03-25T11:33:54;12.30;99.90
4643;DHT22;2334;48.710;9.622;2024-03-25T11:36:21;13.10;99.90
4643;DHT22;2334;48.710;9.622;2024-03-25T11:38:57;13.50;99.90
4643;DHT22;2334;48.710;9.622;2024-03-25T11:41:23;13.00;99.90
4643;DHT22;2334;48.710;9.622;2024-03-25T11:43:50;13.10;99.90
4643;DHT22;2334;48.710;9.622;2024-03-25T11:46:19;12.80;99.90
4643;DHT22;2334;48.710;9.622;2024-03-25T11:48:45;13.20;99.90
4643;DHT22;2334;48.710;9.622;2024-03-25T11:51:16;13.20;99.90
4643;DHT22;2334;48.710;9.622;2024-03-25T11:53:42;13.60;99.90
4643;DHT22;2334;48.710;9.622;2024-03-25T11:56:08;14.00;99.90
4643;DHT22;2334;48.710;9.622;2024-03-25T11:58:34;14.20;99.90
4643;DHT22;2334;48.710;9.622;2024-03-25T12:01:00;14.10;99.90
4643;DHT22;2334;48.710;9.622;2024-03-25T12:03:26;13.40;99.90
4643;DHT22;2334;48.710;9.622;2024-03-25T12:05:52;13.20;99.90
4643;DHT22;2334;48.710;9.622;2024-03-25T12:08:20;13.10;99.90
4643;DHT22;2334;48.710;9.622;2024-03-25T12:10:46;13.40;99.90
4643;DHT22;2334;48.710;9.622;2024-03-25T12:13:30;13.50;99.90
4643;DHT22;2334;48.710;9.622;2024-03-25T12:15:56;14.00;99.90
4643;DHT22;2334;48.710;9.622;2024-03-25T12:18:22;14.30;99.90
4643;DHT22;2334;48.710;9.622;2024-03-25T12:20:48;14.50;99.90
4643;DHT22;2334;48.710;9.622;2024-03-25T12:23:14;14.20;99.90
4643;DHT22;2334;48.710;9.622;2024-03-25T12:25:47;14.00;99.90
4643;DHT22;2334;48.710;9.622;2024-03-25T12:28:13;14.80;99.90
4643;DHT22;2334;48.710;9.622;2024-03-25T12:30:49;14.90;99.90
4643;DHT22;2334;48.710;9.622;2024-03-25T12:33:15;13.70;99.90
4643;DHT22;2334;48.710;9.622;2024-03-25T12:35:41;13.70;99.90
4643;DHT22;2334;48.710;9.622;2024-03-25T12:38:07;13.90;99.90
4643;DHT22;2334;48.710;9.622;2024-03-25T12:40:33;13.30;99.90
4643;DHT22;2334;48.710;9.622;2024-03-25T12:43:01;13.20;99.90
4643;DHT22;2334;48.710;9.622;2024-03-25T12:45:27;13.40;99.90
4643;DHT22;2334;48.710;9.622;2024-03-25T12:47:53;14.10;99.90
4643;DHT22;2334;48.710;9.622;2024-03-25T12:50:19;14.50;99.90
4643;DHT22;2334;48.710;9.622;2024-03-25T12:52:45;14.40;99.90
4643;DHT22;2334;48.710;9.622;2024-03-25T12:55:10;14.70;99.90
4643;DHT22;2334;48.710;9.622;2024-03-25T12:57:36;13.80;99.90
4643;DHT22;2334;48.710;9.622;2024-03-25T13:00:05;13.10;99.90
4643;DHT22;2334;48.710;9.622;2024-03-25T13:02:32;13.30;99.90
4643;DHT22;2334;48.710;9.622;2024-03-25T13:04:58;13.50;99.90
4643;DHT22;2334;48.710;9.622;2024-03-25T13:07:24;13.80;99.90
4643;DHT22;2334;48.710;9.622;2024-03-25T13:09:50;14.00;99.90
4643;DHT22;2334;48.710;9.622;2024-03-25T13:12:16;13.80;99.90
4643;DHT22;2334;48.710;9.622;2024-03-25T13:14:42;14.10;99.90
4643;DHT22;2334;48.710;9.622;2024-03-25T13:17:09;14.10;99.90
4643;DHT22;2334;48.710;9.622;2024-03-25T13:19:35;14.30;99.90
4643;DHT22;2334;48.710;9.622;2024-03-25T13:22:01;14.20;99.90
4643;DHT22;2334;48.710;9.622;2024-03-25T13:24:27;14.60;99.90
4643;DHT22;2334;48.710;9.622;2024-03-25T13:26:53;14.50;99.90
4643;DHT22;2334;48.710;9.622;2024-03-25T13:29:19;14.60;99.90
4643;DHT22;2334;48.710;9.622;2024-03-25T13:31:45;14.40;99.90
4643;DHT22;2334;48.710;9.622;2024-03-25T13:34:13;14.40;99.90
4643;DHT22;2334;48.710;9.622;2024-03-25T13:36:38;14.50;99.90
4643;DHT22;2334;48.710;9.622;2024-03-25T13:39:04;14.40;99.90
4643;DHT22;2334;48.710;9.622;2024-03-25T13:41:31;14.20;99.90
4643;DHT22;2334;48.710;9.622;2024-03-25T13:43:56;13.90;99.90
4643;DHT22;2334;48.710;9.622;2024-03-25T13:46:22;13.70;99.90
4643;DHT22;2334;48.710;9.622;2024-03-25T13:48:48;13.70;99.90
4643;DHT22;2334;48.710;9.622;2024-03-25T13:51:16;13.80;99.90
4643;DHT22;2334;48.710;9.622;2024-03-25T13:53:42;13.80;99.90
4643;DHT22;2334;48.710;9.622;2024-03-25T13:56:07;13.90;99.90
4643;DHT22;2334;48.710;9.622;2024-03-25T13:58:33;14.00;99.90
4643;DHT22;2334;48.710;9.622;2024-03-25T14:00:59;14.10;99.90
4643;DHT22;2334;48.710;9.622;2024-03-25T14:03:25;14.10;99.90
4643;DHT22;2334;48.710;9.622;2024-03-25T14:05:51;13.80;99.90
4643;DHT22;2334;48.710;9.622;2024-03-25T14:08:19;13.80;99.90
4643;DHT22;2334;48.710;9.622;2024-03-25T14:10:44;13.60;99.90
4643;DHT22;2334;48.710;9.622;2024-03-25T14:13:10;13.60;99.90
4643;DHT22;2334;48.710;9.622;2024-03-25T14:15:36;13.60;99.90
4643;DHT22;2334;48.710;9.622;2024-03-25T14:18:03;13.70;99.90
4643;DHT22;2334;48.710;9.622;2024-03-25T14:20:29;13.80;99.90
4643;DHT22;2334;48.710;9.622;2024-03-25T14:22:55;13.80;99.90
4643;DHT22;2334;48.710;9.622;2024-03-25T14:25:23;13.60;99.90
4643;DHT22;2334;48.710;9.622;2024-03-25T14:27:49;13.60;99.90
4643;DHT22;2334;48.710;9.622;2024-03-25T14:30:15;13.70;99.90
4643;DHT22;2334;48.710;9.622;2024-03-25T14:32:41;13.50;99.90
4643;DHT22;2334;48.710;9.622;2024-03-25T14:35:07;13.60;99.90
4643;DHT22;2334;48.710;9.622;2024-03-25T14:37:33;13.70;99.90
4643;DHT22;2334;48.710;9.622;2024-03-25T14:39:59;13.80;99.90
4643;DHT22;2334;48.710;9.622;2024-03-25T14:42:26;13.60;99.90
4643;DHT22;2334;48.710;9.622;2024-03-25T14:44:52;13.40;99.90
4643;DHT22;2334;48.710;9.622;2024-03-25T14:47:18;13.60;99.90
4643;DHT22;2334;48.710;9.622;2024-03-25T14:49:44;13.80;99.90
4643;DHT22;2334;48.710;9.622;2024-03-25T14:52:10;13.80;99.90
4643;DHT22;2334;48.710;9.622;2024-03-25T14:54:37;13.80;99.90
4643;DHT22;2334;48.710;9.622;2024-03-25T14:57:03;13.70;99.90
4643;DHT22;2334;48.710;9.622;2024-03-25T14:59:31;14.00;99.90
4643;DHT22;2334;48.710;9.622;2024-03-25T15:01:59;14.20;99.90
4643;DHT22;2334;48.710;9.622;2024-03-25T15:04:25;14.50;99.90
4643;DHT22;2334;48.710;9.622;2024-03-25T15:06:51;14.50;99.90
4643;DHT22;2334;48.710;9.622;2024-03-25T15:09:17;14.50;99.90
4643;DHT22;2334;48.710;9.622;2024-03-25T15:11:43;14.70;99.90
4643;DHT22;2334;48.710;9.622;2024-03-25T15:14:09;14.40;99.90
4643;DHT22;2334;48.710;9.622;2024-03-25T15:16:36;14.80;99.90
4643;DHT22;2334;48.710;9.622;2024-03-25T15:19:02;14.80;99.40
4643;DHT22;2334;48.710;9.622;2024-03-25T15:21:28;14.40;98.60
4643;DHT22;2334;48.710;9.622;2024-03-25T15:23:54;14.10;98.50
4643;DHT22;2334;48.710;9.622;2024-03-25T15:26:20;14.40;97.90
4643;DHT22;2334;48.710;9.622;2024-03-25T15:28:46;14.90;97.20
4643;DHT22;2334;48.710;9.622;2024-03-25T15:31:12;15.00;97.10
4643;DHT22;2334;48.710;9.622;2024-03-25T15:33:39;14.90;96.60
4643;DHT22;2334;48.710;9.622;2024-03-25T15:36:06;14.70;96.10
4643;DHT22;2334;48.710;9.622;2024-03-25T15:38:32;14.60;96.80
4643;DHT22;2334;48.710;9.622;2024-03-25T15:40:58;14.70;96.30
4643;DHT22;2334;48.710;9.622;2024-03-25T15:43:23;14.70;96.30
4643;DHT22;2334;48.710;9.622;2024-03-25T15:45:54;14.40;96.40
4643;DHT22;2334;48.710;9.622;2024-03-25T15:48:20;14.80;96.20
4643;DHT22;2334;48.710;9.622;2024-03-25T15:50:48;15.10;96.00
4643;DHT22;2334;48.710;9.622;2024-03-25T15:53:14;15.20;94.80
4643;DHT22;2334;48.710;9.622;2024-03-25T15:58:06;15.30;95.50
4643;DHT22;2334;48.710;9.622;2024-03-25T16:00:32;15.20;95.80
4643;DHT22;2334;48.710;9.622;2024-03-25T16:02:58;15.00;94.90
4643;DHT22;2334;48.710;9.622;2024-03-25T16:05:24;15.20;94.10
4643;DHT22;2334;48.710;9.622;2024-03-25T16:07:52;15.40;94.30
4643;DHT22;2334;48.710;9.622;2024-03-25T16:10:22;15.00;93.60